createdAt,value
2023-01-09T00:01:18.906Z,62.02
2023-01-09T00:03:20.457Z,61.56
2023-01-09T00:05:22.193Z,61.78
2023-01-09T00:07:23.868Z,62.19
2023-01-09T00:09:25.456Z,61.77
2023-01-09T00:11:26.965Z,62.79
2023-01-09T00:13:28.524Z,62.14
2023-01-09T00:15:30.070Z,61.99
2023-01-09T00:17:31.847Z,63.18
2023-01-09T00:19:33.459Z,63.57
2023-01-09T00:21:35.987Z,63.87
2023-01-09T00:23:37.493Z,64.20
2023-01-09T00:25:41.653Z,64.59
2023-01-09T00:27:43.912Z,64.00
2023-01-09T00:29:46.668Z,64.47
2023-01-09T00:31:48.214Z,64.14
2023-01-09T00:33:56.745Z,64.03
2023-01-09T00:35:58.359Z,63.29
2023-01-09T00:38:00.264Z,63.69
2023-01-09T00:40:01.875Z,65.83
2023-01-09T00:42:03.711Z,66.68
2023-01-09T00:44:07.764Z,66.13
2023-01-09T00:46:09.402Z,66.08
2023-01-09T00:48:12.209Z,65.79
2023-01-09T00:50:15.310Z,64.71
2023-01-09T00:52:17.110Z,64.66
2023-01-09T00:54:18.831Z,64.12
2023-01-09T00:56:20.863Z,63.29
2023-01-09T00:58:22.389Z,63.75
2023-01-09T01:00:23.983Z,63.61
2023-01-09T01:02:25.754Z,63.15
2023-01-09T01:04:45.941Z,63.12
2023-01-09T01:07:06.025Z,63.47
2023-01-09T01:09:07.510Z,63.16
2023-01-09T01:11:10.331Z,63.30
2023-01-09T01:13:15.041Z,63.34
2023-01-09T01:15:16.873Z,63.61
2023-01-09T01:17:18.375Z,63.31
2023-01-09T01:19:19.953Z,63.30
2023-01-09T01:21:21.528Z,63.15
2023-01-09T01:23:23.046Z,63.49
2023-01-09T01:25:24.584Z,63.32
2023-01-09T01:27:27.341Z,64.09
2023-01-09T01:29:29.111Z,63.58
2023-01-09T01:31:30.645Z,63.78
2023-01-09T01:33:32.317Z,63.36
2023-01-09T01:35:33.826Z,63.35
2023-01-09T01:37:35.850Z,63.09
2023-01-09T01:39:37.339Z,63.69
2023-01-09T01:41:38.959Z,63.41
2023-01-09T01:43:53.716Z,62.99
2023-01-09T01:45:55.537Z,62.83
2023-01-09T01:47:57.259Z,63.34
2023-01-09T01:49:59.236Z,63.10
2023-01-09T01:52:00.785Z,63.11
2023-01-09T01:54:03.679Z,62.98
2023-01-09T01:56:11.593Z,63.02
2023-01-09T01:58:13.801Z,63.47
2023-01-09T02:00:15.576Z,63.74
2023-01-09T02:02:18.351Z,63.52
2023-01-09T02:04:20.048Z,64.35
2023-01-09T02:06:21.566Z,64.36
2023-01-09T02:08:23.337Z,64.20
2023-01-09T02:10:25.001Z,64.15
2023-01-09T02:12:27.018Z,64.23
2023-01-09T02:14:29.929Z,63.53
2023-01-09T02:16:31.429Z,63.54
2023-01-09T02:18:35.904Z,63.82
2023-01-09T02:20:43.567Z,63.69
2023-01-09T02:22:49.057Z,63.41
2023-01-09T02:25:09.241Z,63.05
2023-01-09T02:27:29.254Z,63.80
2023-01-09T02:29:45.993Z,63.80
2023-01-09T02:31:55.374Z,65.04
2023-01-09T02:34:02.645Z,64.75
2023-01-09T02:36:06.765Z,64.86
2023-01-09T02:38:11.095Z,65.05
2023-01-09T02:40:16.797Z,64.77
2023-01-09T02:42:22.417Z,65.04
2023-01-09T02:44:25.403Z,65.67
2023-01-09T02:46:26.925Z,65.51
2023-01-09T02:48:28.604Z,65.78
2023-01-09T02:50:32.700Z,65.74
2023-01-09T02:52:45.449Z,65.63
2023-01-09T02:55:05.841Z,65.59
2023-01-09T02:57:22.374Z,64.84
2023-01-09T02:59:25.977Z,64.96
2023-01-09T03:01:27.609Z,64.82
2023-01-09T03:03:32.797Z,65.14
2023-01-09T03:05:37.226Z,65.32
2023-01-09T03:07:59.167Z,64.40
2023-01-09T03:10:03.422Z,64.54
2023-01-09T03:12:09.694Z,64.60
2023-01-09T03:14:12.710Z,64.37
2023-01-09T03:16:17.570Z,64.65
2023-01-09T03:18:19.914Z,64.49
2023-01-09T03:20:22.948Z,64.56
2023-01-09T03:22:24.707Z,64.36
2023-01-09T03:24:26.231Z,65.05
2023-01-09T03:26:29.506Z,64.81
2023-01-09T03:28:31.004Z,65.06
2023-01-09T03:30:33.093Z,65.26
2023-01-09T03:32:34.613Z,65.94
2023-01-09T03:34:36.115Z,66.15
2023-01-09T03:36:37.672Z,66.03
2023-01-09T03:38:40.464Z,66.60
2023-01-09T03:40:43.818Z,66.57
2023-01-09T03:42:45.355Z,66.33
2023-01-09T03:44:47.014Z,66.63
2023-01-09T03:46:50.659Z,66.60
2023-01-09T03:48:52.159Z,66.75
2023-01-09T03:50:53.943Z,66.32
2023-01-09T03:52:55.462Z,66.18
2023-01-09T03:54:56.967Z,65.60
2023-01-09T03:56:58.609Z,65.23
2023-01-09T03:59:00.189Z,65.60
2023-01-09T04:01:02.635Z,65.41
2023-01-09T04:03:04.345Z,65.39
2023-01-09T04:05:06.174Z,65.53
2023-01-09T04:07:07.720Z,65.14
2023-01-09T04:09:10.575Z,65.06
2023-01-09T04:11:12.103Z,64.83
2023-01-09T04:13:13.650Z,65.08
2023-01-09T04:15:15.243Z,65.22
2023-01-09T04:17:16.800Z,65.17
2023-01-09T04:19:18.680Z,65.15
2023-01-09T04:21:20.255Z,65.13
2023-01-09T04:23:21.766Z,64.87
2023-01-09T04:25:23.307Z,65.25
2023-01-09T04:27:24.869Z,65.42
2023-01-09T04:29:26.518Z,65.13
2023-01-09T04:31:27.969Z,64.95
2023-01-09T04:33:29.700Z,64.33
2023-01-09T04:35:31.191Z,65.42
2023-01-09T04:37:38.932Z,65.23
2023-01-09T04:39:43.622Z,64.60
2023-01-09T04:41:50.951Z,64.65
2023-01-09T04:43:52.505Z,64.47
2023-01-09T04:45:54.143Z,64.82
2023-01-09T04:47:55.728Z,64.40
2023-01-09T04:49:57.673Z,64.25
2023-01-09T04:51:59.180Z,65.00
2023-01-09T04:54:00.724Z,64.59
2023-01-09T04:56:02.638Z,65.04
2023-01-09T04:58:04.125Z,65.04
2023-01-09T05:00:09.785Z,64.45
2023-01-09T05:02:11.937Z,64.71
2023-01-09T05:04:14.407Z,64.81
2023-01-09T05:06:19.158Z,64.72
2023-01-09T05:08:20.783Z,64.92
2023-01-09T05:10:22.427Z,64.68
2023-01-09T05:12:24.077Z,65.54
2023-01-09T05:14:25.649Z,65.54
2023-01-09T05:16:27.463Z,65.95
2023-01-09T05:18:29.375Z,65.22
2023-01-09T05:20:30.991Z,65.30
2023-01-09T05:22:32.712Z,64.87
2023-01-09T05:24:34.354Z,65.46
2023-01-09T05:26:36.087Z,65.48
2023-01-09T05:28:37.880Z,65.44
2023-01-09T05:30:39.472Z,64.84
2023-01-09T05:32:41.048Z,65.27
2023-01-09T05:34:42.774Z,65.54
2023-01-09T05:36:44.322Z,65.51
2023-01-09T05:38:46.030Z,65.55
2023-01-09T05:40:47.591Z,65.46
2023-01-09T05:42:49.338Z,65.02
2023-01-09T05:44:50.828Z,65.01
2023-01-09T05:46:52.882Z,65.40
2023-01-09T05:48:54.544Z,65.45
2023-01-09T05:50:56.190Z,66.09
2023-01-09T05:52:58.052Z,65.78
2023-01-09T05:54:59.669Z,65.83
2023-01-09T05:57:01.196Z,66.37
2023-01-09T05:59:03.096Z,66.79
2023-01-09T06:01:04.744Z,66.46
2023-01-09T06:03:06.279Z,66.73
2023-01-09T06:05:09.154Z,66.33
2023-01-09T06:07:10.797Z,66.41
2023-01-09T06:09:12.650Z,66.58
2023-01-09T06:11:14.159Z,66.02
2023-01-09T06:13:15.695Z,65.14
2023-01-09T06:15:17.780Z,65.69
2023-01-09T06:17:19.682Z,65.32
2023-01-09T06:19:21.700Z,65.92
2023-01-09T06:21:23.437Z,65.69
2023-01-09T06:23:25.122Z,65.43
2023-01-09T06:25:26.609Z,65.24
2023-01-09T06:27:28.097Z,65.00
2023-01-09T06:29:30.049Z,64.87
2023-01-09T06:31:31.675Z,65.20
2023-01-09T06:33:33.325Z,65.00
2023-01-09T06:35:35.000Z,65.60
2023-01-09T06:37:36.528Z,64.92
2023-01-09T06:39:40.319Z,65.10
2023-01-09T06:41:42.143Z,64.49
2023-01-09T06:43:44.094Z,65.12
2023-01-09T06:45:45.687Z,64.85
2023-01-09T06:47:48.504Z,65.61
2023-01-09T06:49:50.456Z,64.95
2023-01-09T06:51:52.131Z,64.52
2023-01-09T06:53:53.865Z,64.63
2023-01-09T06:55:55.390Z,64.63
2023-01-09T06:57:57.111Z,64.41
2023-01-09T06:59:58.765Z,64.46
2023-01-09T07:02:00.489Z,64.22
2023-01-09T07:04:02.123Z,63.58
2023-01-09T07:06:03.777Z,63.00
2023-01-09T07:08:05.346Z,63.44
2023-01-09T07:10:07.392Z,63.44
2023-01-09T07:12:09.145Z,63.49
2023-01-09T07:14:10.699Z,63.23
2023-01-09T07:16:12.264Z,62.46
2023-01-09T07:18:14.065Z,62.39
2023-01-09T07:20:15.780Z,62.99
2023-01-09T07:22:17.493Z,62.54
2023-01-09T07:24:19.195Z,62.32
2023-01-09T07:26:20.694Z,62.89
2023-01-09T07:28:22.149Z,61.86
2023-01-09T07:30:23.821Z,61.41
2023-01-09T07:32:25.444Z,61.50
2023-01-09T07:34:26.915Z,61.85
2023-01-09T07:36:28.387Z,61.64
2023-01-09T07:38:29.977Z,61.61
2023-01-09T07:40:31.587Z,60.96
2023-01-09T07:42:33.408Z,60.55
2023-01-09T07:44:34.900Z,60.42
2023-01-09T07:46:36.475Z,60.94
2023-01-09T07:48:37.991Z,60.77
2023-01-09T07:50:39.501Z,60.87
2023-01-09T07:52:41.038Z,61.11
2023-01-09T07:54:42.675Z,61.19
2023-01-09T07:56:44.159Z,61.03
2023-01-09T07:58:45.574Z,61.99
2023-01-09T08:00:47.155Z,61.92
2023-01-09T08:02:52.834Z,62.26
2023-01-09T08:04:54.374Z,61.87
2023-01-09T08:06:57.103Z,61.84
2023-01-09T08:08:59.044Z,61.44
2023-01-09T08:11:00.591Z,62.14
2023-01-09T08:13:02.173Z,62.25
2023-01-09T08:15:03.782Z,61.97
2023-01-09T08:17:05.298Z,61.45
2023-01-09T08:19:06.985Z,61.32
2023-01-09T08:21:08.477Z,60.74
2023-01-09T08:23:10.005Z,61.07
2023-01-09T08:25:12.548Z,62.44
2023-01-09T08:27:14.707Z,63.61
2023-01-09T08:29:16.196Z,63.59
2023-01-09T08:31:17.721Z,65.02
2023-01-09T08:33:19.266Z,64.56
2023-01-09T08:35:21.492Z,65.24
2023-01-09T08:37:24.365Z,64.56
2023-01-09T08:39:26.005Z,64.64
2023-01-09T08:41:46.412Z,63.41
2023-01-09T08:44:06.498Z,63.27
2023-01-09T08:46:33.471Z,63.89
2023-01-09T08:48:36.243Z,64.10
2023-01-09T08:50:37.777Z,64.05
2023-01-09T08:52:39.550Z,65.92
2023-01-09T08:54:41.095Z,65.78
2023-01-09T08:56:42.543Z,65.65
2023-01-09T08:58:45.244Z,64.85
2023-01-09T09:00:46.777Z,65.14
2023-01-09T09:02:55.555Z,64.49
2023-01-09T09:04:57.988Z,64.50
2023-01-09T09:06:59.531Z,64.45
2023-01-09T09:09:04.031Z,64.81
2023-01-09T09:11:05.657Z,63.98
2023-01-09T09:13:07.295Z,63.89
2023-01-09T09:15:24.834Z,62.67
2023-01-09T09:17:26.965Z,61.56
2023-01-09T09:19:28.519Z,62.10
2023-01-09T09:21:30.013Z,62.75
2023-01-09T09:23:31.725Z,63.78
2023-01-09T09:25:35.759Z,63.61
2023-01-09T09:27:37.880Z,63.23
2023-01-09T09:29:39.353Z,63.32
2023-01-09T09:31:40.807Z,62.71
2023-01-09T09:33:42.496Z,61.15
2023-01-09T09:35:44.047Z,61.40
2023-01-09T09:37:55.336Z,60.71
2023-01-09T09:39:58.058Z,60.79
2023-01-09T09:42:28.992Z,61.11
2023-01-09T09:44:53.458Z,59.69
2023-01-09T09:47:07.034Z,58.64
2023-01-09T09:49:11.658Z,59.17
2023-01-09T09:51:22.049Z,58.71
2023-01-09T09:53:23.594Z,57.86
2023-01-09T09:55:26.294Z,56.38
2023-01-09T09:57:32.899Z,56.77
2023-01-09T09:59:34.740Z,57.09
2023-01-09T10:01:50.557Z,58.23
2023-01-09T10:03:52.827Z,58.24
2023-01-09T10:05:54.740Z,57.73
2023-01-09T10:07:58.090Z,57.19
2023-01-09T10:10:05.842Z,56.95
2023-01-09T10:12:07.325Z,57.63
2023-01-09T10:14:22.923Z,57.23
2023-01-09T10:16:44.083Z,58.09
2023-01-09T10:18:54.864Z,57.64
2023-01-09T10:21:02.443Z,57.15
2023-01-09T10:23:12.749Z,57.05
2023-01-09T10:25:32.985Z,56.24
2023-01-09T10:27:34.435Z,56.43
2023-01-09T10:31:58.985Z,55.45
2023-01-09T10:34:00.571Z,56.32
2023-01-09T10:36:02.061Z,56.79
2023-01-09T10:38:04.218Z,56.42
2023-01-09T10:40:19.752Z,55.84
2023-01-09T10:42:21.400Z,55.97
2023-01-09T10:44:24.913Z,56.43
2023-01-09T10:46:32.919Z,56.21
2023-01-09T10:48:38.151Z,56.44
2023-01-09T10:50:40.223Z,56.42
2023-01-09T10:52:41.971Z,56.89
2023-01-09T10:54:55.184Z,56.97
2023-01-09T10:57:02.245Z,57.23
2023-01-09T10:59:03.867Z,56.60
2023-01-09T11:01:05.439Z,56.34
2023-01-09T11:03:10.774Z,56.55
2023-01-09T11:05:16.486Z,55.98
2023-01-09T11:07:22.198Z,55.53
2023-01-09T11:09:23.777Z,55.44
2023-01-09T11:11:34.124Z,54.90
2023-01-09T11:13:36.694Z,54.30
2023-01-09T11:15:38.205Z,54.48
2023-01-09T11:17:39.773Z,53.94
2023-01-09T11:19:41.274Z,54.97
2023-01-09T11:21:42.866Z,54.83
2023-01-09T11:23:44.518Z,55.84
2023-01-09T11:25:51.605Z,55.57
2023-01-09T11:28:02.336Z,55.58
2023-01-09T11:30:10.100Z,55.96
2023-01-09T11:32:23.974Z,55.91
2023-01-09T11:34:26.317Z,55.66
2023-01-09T11:36:28.612Z,55.52
2023-01-09T11:38:31.116Z,55.88
2023-01-09T11:40:36.063Z,56.01
2023-01-09T11:42:53.057Z,56.78
2023-01-09T11:44:57.569Z,58.01
2023-01-09T11:46:59.390Z,57.76
2023-01-09T11:49:01.687Z,58.89
2023-01-09T11:51:09.423Z,59.28
2023-01-09T11:53:17.874Z,59.21
2023-01-09T11:55:19.409Z,59.69
2023-01-09T11:57:22.151Z,59.15
2023-01-09T11:59:28.090Z,58.18
2023-01-09T12:01:48.408Z,58.56
2023-01-09T12:03:52.786Z,57.56
2023-01-09T12:06:04.051Z,58.35
2023-01-09T12:08:44.174Z,57.40
2023-01-09T12:10:50.913Z,57.92
2023-01-09T12:13:01.497Z,57.56
2023-01-09T12:15:18.311Z,57.71
2023-01-09T12:17:32.047Z,58.34
2023-01-09T12:19:37.907Z,58.12
2023-01-09T12:21:45.534Z,57.46
2023-01-09T12:23:54.132Z,56.71
2023-01-09T12:25:58.500Z,57.23
2023-01-09T12:28:00.038Z,57.03
2023-01-09T12:30:16.888Z,56.76
2023-01-09T12:32:18.356Z,56.73
2023-01-09T12:34:19.943Z,56.46
2023-01-09T12:36:21.474Z,56.83
2023-01-09T12:38:26.354Z,56.66
2023-01-09T12:40:28.033Z,57.04
2023-01-09T12:42:48.361Z,57.26
2023-01-09T12:45:10.214Z,56.96
2023-01-09T12:47:30.279Z,57.10
2023-01-09T12:49:39.363Z,57.41
2023-01-09T12:51:42.273Z,57.93
2023-01-09T12:53:53.334Z,57.86
2023-01-09T12:56:04.164Z,57.54
2023-01-09T12:58:12.986Z,57.09
2023-01-09T13:00:20.733Z,57.41
2023-01-09T13:02:32.720Z,57.81
2023-01-09T13:04:35.521Z,58.08
2023-01-09T13:06:37.795Z,58.14
2023-01-09T13:08:40.426Z,57.96
2023-01-09T13:10:48.853Z,57.20
2023-01-09T13:12:50.541Z,57.39
2023-01-09T13:14:52.313Z,57.18
2023-01-09T13:16:53.909Z,57.90
2023-01-09T13:18:58.777Z,57.34
2023-01-09T13:21:01.245Z,57.27
2023-01-09T13:23:02.903Z,57.94
2023-01-09T13:25:16.608Z,57.98
2023-01-09T13:27:19.176Z,58.36
2023-01-09T13:29:29.299Z,59.45
2023-01-09T13:31:37.315Z,60.37
2023-01-09T13:33:39.616Z,59.82
2023-01-09T13:35:51.442Z,60.75
2023-01-09T13:37:52.982Z,59.95
2023-01-09T13:39:55.740Z,59.96
2023-01-09T13:42:16.378Z,59.69
2023-01-09T13:44:17.931Z,59.54
2023-01-09T13:46:19.747Z,59.77
2023-01-09T13:48:31.633Z,60.53
2023-01-09T13:50:33.207Z,61.66
2023-01-09T13:52:36.748Z,61.80
2023-01-09T13:54:47.176Z,61.48
2023-01-09T13:57:07.451Z,61.36
2023-01-09T13:59:25.971Z,61.77
2023-01-09T14:01:34.500Z,62.28
2023-01-09T14:03:37.059Z,62.38
2023-01-09T14:05:38.665Z,62.51
2023-01-09T14:07:44.562Z,62.68
2023-01-09T14:09:46.674Z,63.14
2023-01-09T14:11:48.384Z,63.13
2023-01-09T14:13:53.679Z,62.91
2023-01-09T14:16:02.068Z,62.74
2023-01-09T14:18:05.356Z,62.79
2023-01-09T14:20:23.684Z,62.65
2023-01-09T14:22:26.465Z,62.47
2023-01-09T14:24:41.372Z,61.66
2023-01-09T14:26:44.687Z,61.64
2023-01-09T14:28:46.923Z,61.51
2023-01-09T14:30:54.509Z,61.37
2023-01-09T14:33:14.729Z,61.08
2023-01-09T14:35:18.048Z,61.50
2023-01-09T14:37:19.614Z,62.03
2023-01-09T14:39:21.286Z,61.68
2023-01-09T14:42:06.470Z,61.55
2023-01-09T14:44:11.171Z,61.96
2023-01-09T14:46:16.368Z,62.36
2023-01-09T14:48:18.303Z,62.42
2023-01-09T14:50:29.057Z,61.79
2023-01-09T14:52:31.853Z,62.72
2023-01-09T14:54:34.396Z,62.48
2023-01-09T14:56:44.707Z,62.60
2023-01-09T14:58:46.156Z,62.81
2023-01-09T15:00:53.646Z,62.80
2023-01-09T15:02:55.262Z,62.71
2023-01-09T15:04:57.340Z,63.68
2023-01-09T15:06:59.483Z,63.27
2023-01-09T15:09:07.024Z,62.97
2023-01-09T15:11:09.935Z,63.05
2023-01-09T15:13:14.062Z,63.01
2023-01-09T15:15:15.723Z,63.75
2023-01-09T15:17:21.117Z,64.09
2023-01-09T15:19:22.747Z,64.42
2023-01-09T15:21:25.531Z,65.24
2023-01-09T15:23:30.279Z,65.27
2023-01-09T15:25:40.258Z,65.73
2023-01-09T15:27:48.980Z,65.10
2023-01-09T15:29:50.996Z,64.68
2023-01-09T15:32:16.121Z,64.75
2023-01-09T15:34:18.664Z,66.49
2023-01-09T15:36:24.387Z,67.33
2023-01-09T15:38:26.042Z,66.97
2023-01-09T15:40:32.176Z,66.74
2023-01-09T15:42:53.010Z,66.28
2023-01-09T15:44:54.625Z,66.46
2023-01-09T15:46:59.586Z,68.90
2023-01-09T15:49:01.137Z,68.82
2023-01-09T15:51:04.181Z,68.93
2023-01-09T15:53:05.939Z,69.81
2023-01-09T15:55:24.452Z,69.37
2023-01-09T15:57:27.140Z,68.93
2023-01-09T15:59:28.789Z,69.08
2023-01-09T16:01:30.759Z,68.91
2023-01-09T16:03:32.724Z,69.23
2023-01-09T16:05:34.334Z,68.66
2023-01-09T16:07:35.874Z,68.68
2023-01-09T16:09:38.041Z,68.67
2023-01-09T16:11:39.609Z,68.83
2023-01-09T16:13:43.964Z,68.63
2023-01-09T16:15:45.973Z,69.53
2023-01-09T16:18:06.350Z,68.91
2023-01-09T16:20:17.339Z,68.59
2023-01-09T16:22:23.114Z,68.64
2023-01-09T16:24:25.700Z,69.11
2023-01-09T16:26:27.985Z,68.53
2023-01-09T16:28:31.005Z,68.48
2023-01-09T16:30:32.495Z,68.57
2023-01-09T16:32:35.100Z,67.61
2023-01-09T16:34:36.671Z,67.31
2023-01-09T16:36:38.246Z,67.25
2023-01-09T16:38:41.823Z,67.31
2023-01-09T16:41:18.733Z,67.42
2023-01-09T16:43:20.398Z,67.99
2023-01-09T16:45:21.973Z,68.80
2023-01-09T16:47:23.501Z,69.23
2023-01-09T16:49:27.146Z,68.55
2023-01-09T16:51:30.556Z,68.75
2023-01-09T16:53:32.340Z,68.75
2023-01-09T16:55:33.797Z,69.18
2023-01-09T16:57:35.380Z,70.43
2023-01-09T16:59:36.945Z,70.12
2023-01-09T17:01:38.776Z,69.17
2023-01-09T17:03:43.595Z,70.18
2023-01-09T17:05:45.440Z,70.12
2023-01-09T17:07:46.979Z,69.37
2023-01-09T17:09:48.643Z,69.68
2023-01-09T17:11:50.205Z,68.81
2023-01-09T17:13:51.780Z,67.74
2023-01-09T17:15:54.076Z,68.31
2023-01-09T17:17:55.823Z,68.62
2023-01-09T17:19:57.260Z,68.76
2023-01-09T17:21:58.887Z,70.01
2023-01-09T17:24:19.074Z,70.08
2023-01-09T17:26:39.269Z,70.03
2023-01-09T17:28:42.925Z,69.94
2023-01-09T17:30:44.445Z,69.10
2023-01-09T17:32:46.022Z,69.12
2023-01-09T17:34:47.594Z,69.34
2023-01-09T17:36:49.304Z,70.05
2023-01-09T17:38:54.976Z,70.19
2023-01-09T17:40:56.822Z,70.75
2023-01-09T17:42:58.576Z,69.55
2023-01-09T17:45:00.099Z,69.22
2023-01-09T17:47:01.589Z,69.84
2023-01-09T17:49:03.662Z,69.65
2023-01-09T17:51:05.179Z,68.86
2023-01-09T17:53:06.656Z,68.73
2023-01-09T17:55:08.436Z,68.89
2023-01-09T17:57:11.002Z,69.43
2023-01-09T17:59:13.548Z,69.21
2023-01-09T18:01:16.661Z,70.13
2023-01-09T18:03:18.150Z,70.40
2023-01-09T18:05:20.211Z,70.76
2023-01-09T18:07:21.813Z,71.58
2023-01-09T18:09:23.322Z,71.89
2023-01-09T18:11:24.878Z,71.22
2023-01-09T18:13:26.373Z,71.17
2023-01-09T18:15:28.002Z,70.48
2023-01-09T18:17:29.465Z,71.92
2023-01-09T18:19:31.388Z,71.65
2023-01-09T18:21:32.931Z,71.73
2023-01-09T18:23:34.615Z,72.44
2023-01-09T18:25:38.896Z,72.35
2023-01-09T18:27:40.508Z,72.09
2023-01-09T18:29:42.085Z,71.95
2023-01-09T18:31:43.714Z,71.39
2023-01-09T18:33:45.839Z,70.21
2023-01-09T18:35:47.538Z,71.11
2023-01-09T18:37:49.566Z,71.52
2023-01-09T18:39:51.065Z,71.75
2023-01-09T18:41:52.596Z,71.95
2023-01-09T18:43:57.776Z,71.79
2023-01-09T18:45:59.293Z,71.69
2023-01-09T18:48:00.818Z,71.11
2023-01-09T18:50:02.478Z,71.23
2023-01-09T18:52:05.300Z,70.63
2023-01-09T18:54:08.368Z,70.37
2023-01-09T18:56:09.840Z,70.27
2023-01-09T18:58:11.634Z,70.23
2023-01-09T19:00:13.397Z,70.10
2023-01-09T19:02:22.390Z,69.65
2023-01-09T19:04:24.220Z,69.56
2023-01-09T19:06:26.465Z,69.00
2023-01-09T19:08:31.427Z,68.76
2023-01-09T19:10:33.244Z,68.43
2023-01-09T19:12:34.762Z,68.85
2023-01-09T19:14:36.341Z,69.11
2023-01-09T19:16:37.922Z,68.64
2023-01-09T19:18:40.300Z,69.48
2023-01-09T19:20:41.828Z,69.52
2023-01-09T19:22:43.382Z,69.85
2023-01-09T19:24:44.915Z,69.78
2023-01-09T19:26:47.829Z,69.51
2023-01-09T19:28:50.274Z,69.48
2023-01-09T19:30:56.244Z,69.77
2023-01-09T19:32:57.909Z,70.74
2023-01-09T19:34:59.418Z,70.38
2023-01-09T19:37:01.024Z,70.81
2023-01-09T19:39:03.579Z,70.38
2023-01-09T19:41:09.279Z,70.62
2023-01-09T19:43:10.858Z,70.77
2023-01-09T19:45:12.554Z,70.31
2023-01-09T19:47:14.247Z,69.56
2023-01-09T19:49:15.811Z,69.89
2023-01-09T19:51:18.141Z,69.77
2023-01-09T19:53:19.693Z,70.06
2023-01-09T19:55:21.223Z,69.63
2023-01-09T19:57:23.866Z,69.46
2023-01-09T19:59:25.429Z,69.47
2023-01-09T20:01:28.204Z,69.62
2023-01-09T20:03:29.806Z,70.98
2023-01-09T20:05:31.392Z,71.41
2023-01-09T20:07:33.803Z,70.79
2023-01-09T20:09:35.548Z,71.21
2023-01-09T20:11:37.089Z,71.25
2023-01-09T20:13:38.639Z,71.39
2023-01-09T20:15:40.648Z,71.56
2023-01-09T20:17:43.745Z,71.44
2023-01-09T20:19:45.642Z,71.51
2023-01-09T20:21:47.391Z,71.70
2023-01-09T20:23:51.684Z,72.36
2023-01-09T20:25:53.490Z,72.52
2023-01-09T20:27:55.114Z,72.23
2023-01-09T20:29:56.707Z,72.77
2023-01-09T20:31:58.428Z,72.58
2023-01-09T20:34:00.239Z,73.30
2023-01-09T20:36:02.343Z,73.59
2023-01-09T20:38:03.879Z,73.02
2023-01-09T20:40:05.875Z,72.78
2023-01-09T20:42:07.385Z,73.12
2023-01-09T20:44:12.453Z,73.45
2023-01-09T20:46:14.677Z,73.11
2023-01-09T20:48:16.369Z,72.30
2023-01-09T20:50:17.902Z,72.58
2023-01-09T20:52:19.502Z,73.30
2023-01-09T20:54:21.627Z,73.41
2023-01-09T20:56:23.503Z,72.95
2023-01-09T20:58:28.562Z,72.21
2023-01-09T21:00:32.237Z,74.01
2023-01-09T21:02:34.453Z,74.42
2023-01-09T21:04:35.958Z,74.10
2023-01-09T21:06:37.680Z,74.54
2023-01-09T21:08:39.472Z,74.95
2023-01-09T21:10:41.032Z,73.71
2023-01-09T21:12:42.919Z,73.62
2023-01-09T21:14:44.440Z,73.21
2023-01-09T21:16:54.231Z,74.10
2023-01-09T21:18:56.676Z,74.51
2023-01-09T21:20:58.257Z,73.94
2023-01-09T21:22:59.789Z,74.05
2023-01-09T21:25:01.684Z,74.18
2023-01-09T21:27:03.523Z,73.04
2023-01-09T21:29:08.375Z,73.72
2023-01-09T21:31:09.963Z,72.67
2023-01-09T21:33:11.575Z,74.25
2023-01-09T21:35:13.298Z,74.49
2023-01-09T21:37:16.699Z,75.13
2023-01-09T21:39:19.046Z,75.31
2023-01-09T21:41:39.577Z,75.26
2023-01-09T21:43:59.622Z,75.52
2023-01-09T21:46:19.577Z,74.93
2023-01-09T21:48:21.220Z,75.21
2023-01-09T21:50:22.730Z,74.17
2023-01-09T21:52:25.691Z,73.98
2023-01-09T21:54:27.248Z,74.33
2023-01-09T21:56:28.759Z,75.20
2023-01-09T21:58:30.302Z,75.51
2023-01-09T22:00:32.181Z,76.10
2023-01-09T22:02:33.717Z,75.73
2023-01-09T22:04:35.217Z,75.65
2023-01-09T22:06:36.739Z,74.71
2023-01-09T22:08:38.260Z,73.83
2023-01-09T22:10:39.898Z,73.40
2023-01-09T22:13:01.445Z,73.64
2023-01-09T22:15:03.145Z,73.12
2023-01-09T22:17:04.982Z,74.01
2023-01-09T22:19:06.519Z,73.76
2023-01-09T22:21:08.063Z,73.47
2023-01-09T22:23:09.658Z,74.37
2023-01-09T22:25:11.146Z,74.29
2023-01-09T22:27:12.871Z,74.13
2023-01-09T22:29:16.058Z,74.07
2023-01-09T22:31:19.113Z,73.10
2023-01-09T22:33:20.741Z,74.48
2023-01-09T22:35:22.296Z,74.94
2023-01-09T22:37:24.149Z,75.94
2023-01-09T22:39:25.635Z,75.02
2023-01-09T22:41:27.598Z,76.87
2023-01-09T22:43:29.438Z,76.80
2023-01-09T22:45:31.034Z,76.09
2023-01-09T22:47:32.520Z,77.80
2023-01-09T22:49:51.769Z,78.14
2023-01-09T22:51:54.060Z,77.01
2023-01-09T22:53:55.646Z,77.37
2023-01-09T22:55:57.848Z,75.89
2023-01-09T22:57:59.397Z,76.24
2023-01-09T23:00:00.985Z,75.71
2023-01-09T23:02:02.622Z,76.01
2023-01-09T23:04:04.973Z,76.20
2023-01-09T23:06:07.999Z,75.18
2023-01-09T23:08:09.533Z,75.64
2023-01-09T23:10:11.196Z,74.74
2023-01-09T23:12:12.916Z,74.35
2023-01-09T23:14:14.535Z,74.89
2023-01-09T23:16:16.065Z,74.44
2023-01-09T23:18:17.815Z,73.92
2023-01-09T23:20:19.431Z,73.72
2023-01-09T23:22:21.307Z,74.03
2023-01-09T23:24:22.800Z,73.65
2023-01-09T23:26:24.297Z,73.28
2023-01-09T23:28:26.904Z,72.99
2023-01-09T23:30:28.388Z,74.25
2023-01-09T23:32:29.909Z,74.86
2023-01-09T23:34:32.004Z,75.05
2023-01-09T23:36:33.635Z,74.60
2023-01-09T23:38:35.474Z,74.43
2023-01-09T23:40:37.227Z,73.66
2023-01-09T23:42:57.477Z,73.61
2023-01-09T23:44:59.008Z,72.90
2023-01-09T23:47:00.763Z,72.03
2023-01-09T23:49:02.243Z,72.71
2023-01-09T23:51:05.778Z,72.76
2023-01-09T23:53:07.271Z,73.05
2023-01-09T23:55:11.045Z,73.89
2023-01-09T23:57:12.700Z,74.92
2023-01-09T23:59:14.796Z,75.06
